createdAt,value
2023-05-07T00:00:38.192Z,97.40
2023-05-07T00:03:05.102Z,97.30
2023-05-07T00:05:31.941Z,96.60
2023-05-07T00:07:59.750Z,97.10
2023-05-07T00:10:27.241Z,97.00
2023-05-07T00:12:54.104Z,96.70
2023-05-07T00:15:21.020Z,96.70
2023-05-07T00:17:47.847Z,96.70
2023-05-07T00:20:14.723Z,96.80
2023-05-07T00:22:41.544Z,96.10
2023-05-07T00:25:08.805Z,96.10
2023-05-07T00:27:35.607Z,96.30
2023-05-07T00:30:02.467Z,95.90
2023-05-07T00:32:29.257Z,95.90
2023-05-07T00:34:56.695Z,95.70
2023-05-07T00:37:23.471Z,95.60
2023-05-07T00:39:50.259Z,95.50
2023-05-07T00:42:17.241Z,95.30
2023-05-07T00:44:44.174Z,95.20
2023-05-07T00:47:12.430Z,95.20
2023-05-07T00:49:42.362Z,95.20
2023-05-07T00:52:12.447Z,95.00
2023-05-07T00:54:41.136Z,95.20
2023-05-07T00:57:09.794Z,94.40
2023-05-07T00:59:37.012Z,94.60
2023-05-07T01:02:03.906Z,94.60
2023-05-07T01:04:30.819Z,94.50
2023-05-07T01:06:59.431Z,94.70
2023-05-07T01:09:27.651Z,94.70
2023-05-07T01:11:55.664Z,94.40
2023-05-07T01:14:22.789Z,94.70
2023-05-07T01:16:52.032Z,94.40
2023-05-07T01:19:20.447Z,94.80
2023-05-07T01:21:49.259Z,94.40
2023-05-07T01:24:16.852Z,94.30
2023-05-07T01:26:45.564Z,94.30
2023-05-07T01:29:12.701Z,94.40
2023-05-07T01:31:41.395Z,94.40
2023-05-07T01:34:10.465Z,94.10
2023-05-07T01:36:39.639Z,94.30
2023-05-07T01:39:07.776Z,94.10
2023-05-07T01:41:35.073Z,94.40
2023-05-07T01:44:04.017Z,93.90
2023-05-07T01:46:32.311Z,94.00
2023-05-07T01:48:59.646Z,93.80
2023-05-07T01:51:27.172Z,93.90
2023-05-07T01:53:54.690Z,94.00
2023-05-07T01:56:21.983Z,94.50
2023-05-07T01:58:49.246Z,94.30
2023-05-07T02:01:16.139Z,94.20
2023-05-07T02:03:43.220Z,94.30
2023-05-07T02:06:10.136Z,94.40
2023-05-07T02:08:37.121Z,94.10
2023-05-07T02:11:04.703Z,94.00
2023-05-07T02:13:34.745Z,94.20
2023-05-07T02:16:02.123Z,94.50
2023-05-07T02:18:28.925Z,94.70
2023-05-07T02:20:55.748Z,94.20
2023-05-07T02:23:22.511Z,94.80
2023-05-07T02:25:49.264Z,94.00
2023-05-07T02:28:16.421Z,94.20
2023-05-07T02:30:43.339Z,94.40
2023-05-07T02:33:10.570Z,94.60
2023-05-07T02:35:37.488Z,94.50
2023-05-07T02:38:04.330Z,94.50
2023-05-07T02:40:34.564Z,94.70
2023-05-07T02:43:01.437Z,94.70
2023-05-07T02:45:28.362Z,94.90
2023-05-07T02:47:56.083Z,95.00
2023-05-07T02:50:23.015Z,95.50
2023-05-07T02:52:49.862Z,95.30
2023-05-07T02:55:17.176Z,95.30
2023-05-07T02:57:43.952Z,95.40
2023-05-07T03:00:15.829Z,95.60
2023-05-07T03:02:42.812Z,95.80
2023-05-07T03:05:09.734Z,95.80
2023-05-07T03:07:37.260Z,95.60
2023-05-07T03:10:04.883Z,95.80
2023-05-07T03:12:32.348Z,95.90
2023-05-07T03:14:59.306Z,96.00
2023-05-07T03:17:28.920Z,95.80
2023-05-07T03:19:55.794Z,95.90
2023-05-07T03:22:22.634Z,96.10
2023-05-07T03:24:49.423Z,95.90
2023-05-07T03:27:16.267Z,95.90
2023-05-07T03:29:43.057Z,96.30
2023-05-07T03:32:09.912Z,96.10
2023-05-07T03:34:36.683Z,96.50
2023-05-07T03:37:03.476Z,96.80
2023-05-07T03:39:30.283Z,96.80
2023-05-07T03:41:57.831Z,96.80
2023-05-07T03:44:24.759Z,96.80
2023-05-07T03:46:51.524Z,96.90
2023-05-07T03:49:18.346Z,97.50
2023-05-07T03:51:45.206Z,98.10
2023-05-07T03:54:12.127Z,98.10
2023-05-07T03:56:38.911Z,98.20
2023-05-07T03:59:05.780Z,98.70
2023-05-07T04:01:32.768Z,99.30
2023-05-07T04:03:59.687Z,99.30
2023-05-07T04:06:26.647Z,99.40
2023-05-07T04:08:53.397Z,99.60
2023-05-07T04:11:21.299Z,99.70
2023-05-07T04:13:48.330Z,100.00
2023-05-07T04:16:15.144Z,100.00
2023-05-07T04:18:42.440Z,100.00
2023-05-07T04:21:19.558Z,100.00
2023-05-07T04:23:50.529Z,100.00
2023-05-07T04:26:17.426Z,100.00
2023-05-07T04:28:44.250Z,100.00
2023-05-07T04:31:11.257Z,100.00
2023-05-07T04:33:38.114Z,100.00
2023-05-07T04:36:05.528Z,100.00
2023-05-07T04:38:32.706Z,100.00
2023-05-07T04:41:04.964Z,100.00
2023-05-07T04:43:31.889Z,100.00
2023-05-07T04:45:58.881Z,100.00
2023-05-07T04:48:25.889Z,100.00
2023-05-07T04:50:52.849Z,100.00
2023-05-07T04:53:20.099Z,100.00
2023-05-07T04:55:46.989Z,100.00
2023-05-07T04:58:14.147Z,100.00
2023-05-07T05:00:41.072Z,100.00
2023-05-07T05:03:08.418Z,100.00
2023-05-07T05:05:35.309Z,100.00
2023-05-07T05:08:02.185Z,100.00
2023-05-07T05:10:28.943Z,100.00
2023-05-07T05:12:55.842Z,99.40
2023-05-07T05:15:22.861Z,99.20
2023-05-07T05:17:49.672Z,98.60
2023-05-07T05:20:16.685Z,98.40
2023-05-07T05:22:43.637Z,98.00
2023-05-07T05:25:10.547Z,97.50
2023-05-07T05:27:37.440Z,97.10
2023-05-07T05:30:05.233Z,97.60
2023-05-07T05:32:32.065Z,97.40
2023-05-07T05:34:58.906Z,96.60
2023-05-07T05:37:26.416Z,95.40
2023-05-07T05:39:53.755Z,95.20
2023-05-07T05:42:21.076Z,94.20
2023-05-07T05:44:47.873Z,93.90
2023-05-07T05:47:15.064Z,94.10
2023-05-07T05:49:41.964Z,94.10
2023-05-07T05:52:10.760Z,94.10
2023-05-07T05:54:38.270Z,92.80
2023-05-07T05:57:06.003Z,92.50
2023-05-07T05:59:33.107Z,92.70
2023-05-07T06:02:00.097Z,91.60
2023-05-07T06:04:27.187Z,91.30
2023-05-07T06:06:53.904Z,90.70
2023-05-07T06:09:21.226Z,90.30
2023-05-07T06:11:48.134Z,90.00
2023-05-07T06:14:14.967Z,89.50
2023-05-07T06:16:41.867Z,86.60
2023-05-07T06:19:08.752Z,86.20
2023-05-07T06:21:35.573Z,84.50
2023-05-07T06:24:02.330Z,83.50
2023-05-07T06:26:29.106Z,82.60
2023-05-07T06:28:56.044Z,77.20
2023-05-07T06:31:23.071Z,76.60
2023-05-07T06:33:55.160Z,74.60
2023-05-07T06:36:22.130Z,74.30
2023-05-07T06:38:48.908Z,73.70
2023-05-07T06:41:15.759Z,69.80
2023-05-07T06:43:42.682Z,68.20
2023-05-07T06:46:09.609Z,68.40
2023-05-07T06:48:36.539Z,65.90
2023-05-07T06:51:03.346Z,63.40
2023-05-07T06:53:31.617Z,61.80
2023-05-07T06:55:58.440Z,61.10
2023-05-07T06:58:25.388Z,58.30
2023-05-07T07:00:52.101Z,58.60
2023-05-07T07:03:18.915Z,57.80
2023-05-07T07:05:45.796Z,59.00
2023-05-07T07:08:12.536Z,58.40
2023-05-07T07:10:39.524Z,57.60
2023-05-07T07:13:06.355Z,59.60
2023-05-07T07:15:33.128Z,59.40
2023-05-07T07:17:59.898Z,58.70
2023-05-07T07:20:26.896Z,57.80
2023-05-07T07:22:53.744Z,56.60
2023-05-07T07:25:20.600Z,59.00
2023-05-07T07:27:47.622Z,59.00
2023-05-07T07:30:14.549Z,58.30
2023-05-07T07:32:41.396Z,55.90
2023-05-07T07:35:08.887Z,55.90
2023-05-07T07:37:35.764Z,54.90
2023-05-07T07:40:02.579Z,54.30
2023-05-07T07:42:30.250Z,57.80
2023-05-07T07:44:58.161Z,57.10
2023-05-07T07:47:25.138Z,54.90
2023-05-07T07:49:51.910Z,55.70
2023-05-07T07:52:19.832Z,54.20
2023-05-07T07:54:46.660Z,55.70
2023-05-07T07:57:13.486Z,55.20
2023-05-07T07:59:40.606Z,55.00
2023-05-07T08:02:07.628Z,53.50
2023-05-07T08:04:34.503Z,54.60
2023-05-07T08:07:01.476Z,53.20
2023-05-07T08:09:28.335Z,53.30
2023-05-07T08:11:55.213Z,54.70
2023-05-07T08:14:21.989Z,56.70
2023-05-07T08:16:49.019Z,54.60
2023-05-07T08:19:15.952Z,52.50
2023-05-07T08:21:42.826Z,54.40
2023-05-07T08:24:09.626Z,50.50
2023-05-07T08:26:37.018Z,51.30
2023-05-07T08:29:03.848Z,52.60
2023-05-07T08:31:30.667Z,48.80
2023-05-07T08:33:59.115Z,51.00
2023-05-07T08:36:26.752Z,53.20
2023-05-07T08:38:54.188Z,50.20
2023-05-07T08:41:21.888Z,50.20
2023-05-07T08:43:50.893Z,49.90
2023-05-07T08:46:25.974Z,49.60
2023-05-07T08:48:53.084Z,50.90
2023-05-07T08:51:21.855Z,50.40
2023-05-07T08:53:49.893Z,48.60
2023-05-07T08:56:18.100Z,50.10
2023-05-07T08:58:46.304Z,53.90
2023-05-07T09:01:17.634Z,52.80
2023-05-07T09:03:47.845Z,52.40
2023-05-07T09:06:15.122Z,52.70
2023-05-07T09:08:41.978Z,50.50
2023-05-07T09:11:09.206Z,49.00
2023-05-07T09:13:35.997Z,47.10
2023-05-07T09:16:13.158Z,46.10
2023-05-07T09:18:47.446Z,42.60
2023-05-07T09:21:18.994Z,45.30
2023-05-07T09:23:45.845Z,45.60
2023-05-07T09:26:13.008Z,48.20
2023-05-07T09:28:43.756Z,48.40
2023-05-07T09:31:12.234Z,45.40
2023-05-07T09:33:40.521Z,46.10
2023-05-07T09:36:09.612Z,47.60
2023-05-07T09:38:37.933Z,44.70
2023-05-07T09:41:05.065Z,47.10
2023-05-07T09:43:37.031Z,49.30
2023-05-07T09:46:06.938Z,44.90
2023-05-07T09:48:38.080Z,45.10
2023-05-07T09:51:19.557Z,44.90
2023-05-07T09:53:47.226Z,47.70
2023-05-07T09:56:16.472Z,46.50
2023-05-07T09:58:44.324Z,43.70
2023-05-07T10:01:12.968Z,45.30
2023-05-07T10:03:43.396Z,42.30
2023-05-07T10:06:11.712Z,41.70
2023-05-07T10:08:39.013Z,43.50
2023-05-07T10:11:09.614Z,43.80
2023-05-07T10:13:37.806Z,42.60
2023-05-07T10:16:06.239Z,40.80
2023-05-07T10:18:34.447Z,42.40
2023-05-07T10:21:18.323Z,38.10
2023-05-07T10:23:50.049Z,39.60
2023-05-07T10:26:19.324Z,41.50
2023-05-07T10:28:49.267Z,41.20
2023-05-07T10:31:51.237Z,40.60
2023-05-07T10:34:24.164Z,39.80
2023-05-07T10:36:52.970Z,38.90
2023-05-07T10:39:21.620Z,40.00
2023-05-07T10:41:49.240Z,38.40
2023-05-07T10:44:30.379Z,41.50
2023-05-07T10:47:11.755Z,38.80
2023-05-07T10:50:07.491Z,39.40
2023-05-07T10:52:34.486Z,39.60
2023-05-07T10:55:16.489Z,38.80
2023-05-07T10:57:43.282Z,38.20
2023-05-07T11:00:37.975Z,40.70
2023-05-07T11:03:08.013Z,39.30
2023-05-07T11:05:37.942Z,39.10
2023-05-07T11:08:06.384Z,40.20
2023-05-07T11:10:59.184Z,36.40
2023-05-07T11:13:45.875Z,36.60
2023-05-07T11:16:24.521Z,37.00
2023-05-07T11:18:53.289Z,38.10
2023-05-07T11:21:39.432Z,37.90
2023-05-07T11:24:07.804Z,38.50
2023-05-07T11:26:46.572Z,39.10
2023-05-07T11:29:23.969Z,41.40
2023-05-07T11:31:55.265Z,37.90
2023-05-07T11:34:23.838Z,38.20
2023-05-07T11:36:50.927Z,39.20
2023-05-07T11:39:27.867Z,39.50
2023-05-07T11:41:54.699Z,37.70
2023-05-07T11:44:21.466Z,38.10
2023-05-07T11:46:49.501Z,37.00
2023-05-07T11:49:16.884Z,37.90
2023-05-07T11:51:43.974Z,35.90
2023-05-07T11:54:12.321Z,36.50
2023-05-07T11:56:40.092Z,37.10
2023-05-07T11:59:07.358Z,36.70
2023-05-07T12:01:37.139Z,39.10
2023-05-07T12:04:05.571Z,37.80
2023-05-07T12:06:32.486Z,39.60
2023-05-07T12:08:59.527Z,37.80
2023-05-07T12:11:27.267Z,38.20
2023-05-07T12:13:59.048Z,37.70
2023-05-07T12:16:26.739Z,37.80
2023-05-07T12:18:56.036Z,38.20
2023-05-07T12:21:24.270Z,40.30
2023-05-07T12:23:51.457Z,35.80
2023-05-07T12:26:20.022Z,38.80
2023-05-07T12:28:47.279Z,36.60
2023-05-07T12:31:16.079Z,37.90
2023-05-07T12:33:43.460Z,36.90
2023-05-07T12:36:13.117Z,38.80
2023-05-07T12:38:41.690Z,35.90
2023-05-07T12:41:11.126Z,36.50
2023-05-07T12:43:39.053Z,38.40
2023-05-07T12:46:07.944Z,37.70
2023-05-07T12:48:36.663Z,39.40
2023-05-07T12:51:03.976Z,38.30
2023-05-07T12:53:32.316Z,34.90
2023-05-07T12:56:00.808Z,37.10
2023-05-07T12:58:34.297Z,39.60
2023-05-07T13:01:02.793Z,39.30
2023-05-07T13:03:31.463Z,37.70
2023-05-07T13:06:07.252Z,38.80
2023-05-07T13:08:37.360Z,36.50
2023-05-07T13:11:04.967Z,36.60
2023-05-07T13:13:33.357Z,39.30
2023-05-07T13:16:01.468Z,38.10
2023-05-07T13:18:30.660Z,40.50
2023-05-07T13:20:58.357Z,40.40
2023-05-07T13:23:25.879Z,39.10
2023-05-07T13:25:54.875Z,38.70
2023-05-07T13:28:22.184Z,38.20
2023-05-07T13:30:49.306Z,40.40
2023-05-07T13:33:17.026Z,40.60
2023-05-07T13:35:43.957Z,41.70
2023-05-07T13:38:10.870Z,40.20
2023-05-07T13:40:37.766Z,39.70
2023-05-07T13:43:06.775Z,41.30
2023-05-07T13:45:33.664Z,39.20
2023-05-07T13:48:00.640Z,41.70
2023-05-07T13:50:30.933Z,39.20
2023-05-07T13:52:57.903Z,38.90
2023-05-07T13:55:25.792Z,39.10
2023-05-07T13:58:00.780Z,39.70
2023-05-07T14:00:28.540Z,39.30
2023-05-07T14:02:56.183Z,40.40
2023-05-07T14:05:28.981Z,42.10
2023-05-07T14:07:57.693Z,41.00
2023-05-07T14:10:24.512Z,40.00
2023-05-07T14:12:51.370Z,39.70
2023-05-07T14:15:18.234Z,39.50
2023-05-07T14:17:45.453Z,38.60
2023-05-07T14:20:13.753Z,37.60
2023-05-07T14:22:40.999Z,40.50
2023-05-07T14:25:08.723Z,41.90
2023-05-07T14:27:35.694Z,40.00
2023-05-07T14:30:02.604Z,39.50
2023-05-07T14:32:29.538Z,42.80
2023-05-07T14:34:56.334Z,40.20
2023-05-07T14:37:25.020Z,39.60
2023-05-07T14:39:51.870Z,41.20
2023-05-07T14:42:18.965Z,43.50
2023-05-07T14:44:46.505Z,42.90
2023-05-07T14:47:14.487Z,42.80
2023-05-07T14:49:44.122Z,42.20
2023-05-07T14:52:11.291Z,42.30
2023-05-07T14:54:39.413Z,41.50
2023-05-07T14:57:08.008Z,42.20
2023-05-07T14:59:35.297Z,42.10
2023-05-07T15:02:05.221Z,41.20
2023-05-07T15:04:33.037Z,41.20
2023-05-07T15:07:00.093Z,39.10
2023-05-07T15:09:27.172Z,42.40
2023-05-07T15:11:53.968Z,45.40
2023-05-07T15:14:22.751Z,42.70
2023-05-07T15:16:50.122Z,39.40
2023-05-07T15:19:17.971Z,40.20
2023-05-07T15:21:44.994Z,42.20
2023-05-07T15:24:11.735Z,42.60
2023-05-07T15:26:38.516Z,42.20
2023-05-07T15:29:10.792Z,41.70
2023-05-07T15:31:39.085Z,44.70
2023-05-07T15:34:06.134Z,43.60
2023-05-07T15:36:33.856Z,42.40
2023-05-07T15:39:01.085Z,42.10
2023-05-07T15:41:27.845Z,41.40
2023-05-07T15:43:54.693Z,41.90
2023-05-07T15:46:26.888Z,41.70
2023-05-07T15:48:54.127Z,41.50
2023-05-07T15:51:21.292Z,42.00
2023-05-07T15:53:48.298Z,43.70
2023-05-07T15:56:15.249Z,43.00
2023-05-07T15:58:42.086Z,42.80
2023-05-07T16:01:09.107Z,43.40
2023-05-07T16:03:36.230Z,43.30
2023-05-07T16:06:03.368Z,43.30
2023-05-07T16:08:30.173Z,43.30
2023-05-07T16:10:56.953Z,43.50
2023-05-07T16:13:24.975Z,44.60
2023-05-07T16:15:58.474Z,45.30
2023-05-07T16:18:25.550Z,43.40
2023-05-07T16:20:52.635Z,44.10
2023-05-07T16:23:19.501Z,45.60
2023-05-07T16:25:46.437Z,44.60
2023-05-07T16:28:14.085Z,44.60
2023-05-07T16:30:41.048Z,44.70
2023-05-07T16:33:08.405Z,45.40
2023-05-07T16:35:35.264Z,45.80
2023-05-07T16:38:02.032Z,45.40
2023-05-07T16:40:29.258Z,46.20
2023-05-07T16:42:56.294Z,45.00
2023-05-07T16:45:23.265Z,46.50
2023-05-07T16:47:50.214Z,45.10
2023-05-07T16:50:17.127Z,44.80
2023-05-07T16:52:43.917Z,44.80
2023-05-07T16:55:11.380Z,45.40
2023-05-07T16:57:38.769Z,45.10
2023-05-07T17:00:07.487Z,45.40
2023-05-07T17:02:37.412Z,45.20
2023-05-07T17:05:07.823Z,45.80
2023-05-07T17:07:35.152Z,45.30
2023-05-07T17:10:02.663Z,46.70
2023-05-07T17:12:31.283Z,46.80
2023-05-07T17:14:58.019Z,46.30
2023-05-07T17:17:24.827Z,46.60
2023-05-07T17:19:51.824Z,45.80
2023-05-07T17:22:18.706Z,46.00
2023-05-07T17:24:45.666Z,45.70
2023-05-07T17:27:12.479Z,45.60
2023-05-07T17:29:39.244Z,46.70
2023-05-07T17:32:07.779Z,47.10
2023-05-07T17:34:35.491Z,47.10
2023-05-07T17:37:02.577Z,46.90
2023-05-07T17:39:29.597Z,46.80
2023-05-07T17:41:56.537Z,47.00
2023-05-07T17:44:23.408Z,47.20
2023-05-07T17:46:50.391Z,46.90
2023-05-07T17:49:19.570Z,46.90
2023-05-07T17:51:55.402Z,47.50
2023-05-07T17:54:25.975Z,47.20
2023-05-07T17:56:53.246Z,47.30
2023-05-07T17:59:20.114Z,48.20
2023-05-07T18:01:47.028Z,48.90
2023-05-07T18:04:14.085Z,49.90
2023-05-07T18:06:42.078Z,50.80
2023-05-07T18:09:09.276Z,50.90
2023-05-07T18:11:37.360Z,51.60
2023-05-07T18:14:04.412Z,51.60
2023-05-07T18:16:31.324Z,51.90
2023-05-07T18:18:58.423Z,52.70
2023-05-07T18:21:25.299Z,52.00
2023-05-07T18:23:52.077Z,51.50
2023-05-07T18:26:18.886Z,52.40
2023-05-07T18:28:46.452Z,51.80
2023-05-07T18:31:13.707Z,52.60
2023-05-07T18:33:40.661Z,52.40
2023-05-07T18:36:07.532Z,53.30
2023-05-07T18:38:34.337Z,52.60
2023-05-07T18:41:05.477Z,53.60
2023-05-07T18:43:34.024Z,53.80
2023-05-07T18:46:01.268Z,54.10
2023-05-07T18:48:28.326Z,53.90
2023-05-07T18:50:55.447Z,55.20
2023-05-07T18:53:22.464Z,54.60
2023-05-07T18:55:50.715Z,55.30
2023-05-07T18:58:19.771Z,55.00
2023-05-07T19:00:51.445Z,55.10
2023-05-07T19:03:18.453Z,55.30
2023-05-07T19:05:45.833Z,55.50
2023-05-07T19:08:13.135Z,55.60
2023-05-07T19:10:42.376Z,56.00
2023-05-07T19:13:09.216Z,56.00
2023-05-07T19:15:38.648Z,56.20
2023-05-07T19:18:05.547Z,56.30
2023-05-07T19:20:32.477Z,56.90
2023-05-07T19:22:59.312Z,56.40
2023-05-07T19:25:26.067Z,56.60
2023-05-07T19:27:52.980Z,57.30
2023-05-07T19:30:19.907Z,56.90
2023-05-07T19:32:46.814Z,57.40
2023-05-07T19:35:13.967Z,57.60
2023-05-07T19:37:43.335Z,57.80
2023-05-07T19:40:10.652Z,57.40
2023-05-07T19:42:37.615Z,57.90
2023-05-07T19:45:05.509Z,57.90
2023-05-07T19:47:32.694Z,57.60
2023-05-07T19:49:59.723Z,58.50
2023-05-07T19:52:27.016Z,58.10
2023-05-07T19:54:54.720Z,58.90
2023-05-07T19:57:21.570Z,59.50
2023-05-07T19:59:48.554Z,59.30
2023-05-07T20:02:15.601Z,59.40
2023-05-07T20:04:42.575Z,60.00
2023-05-07T20:07:09.453Z,59.80
2023-05-07T20:09:36.706Z,61.70
2023-05-07T20:12:03.800Z,60.50
2023-05-07T20:14:30.646Z,60.60
2023-05-07T20:17:00.024Z,61.80
2023-05-07T20:19:27.022Z,62.10
2023-05-07T20:21:53.934Z,62.10
2023-05-07T20:24:20.936Z,63.00
2023-05-07T20:26:47.924Z,62.50
2023-05-07T20:29:14.811Z,62.30
2023-05-07T20:31:41.645Z,63.00
2023-05-07T20:34:08.539Z,63.30
2023-05-07T20:36:37.094Z,63.30
2023-05-07T20:39:06.334Z,62.90
2023-05-07T20:41:33.126Z,63.60
2023-05-07T20:44:00.490Z,64.10
2023-05-07T20:46:27.614Z,63.90
2023-05-07T20:48:54.783Z,63.90
2023-05-07T20:51:21.626Z,63.90
2023-05-07T20:53:48.423Z,64.70
2023-05-07T20:56:15.982Z,64.50
2023-05-07T20:58:42.806Z,64.80
2023-05-07T21:01:09.756Z,65.60
2023-05-07T21:03:36.641Z,65.50
2023-05-07T21:06:04.151Z,65.90
2023-05-07T21:08:31.146Z,65.60
2023-05-07T21:11:00.537Z,66.50
2023-05-07T21:13:27.598Z,67.20
2023-05-07T21:15:54.396Z,67.20
2023-05-07T21:18:21.398Z,67.30
2023-05-07T21:20:48.400Z,67.70
2023-05-07T21:23:15.400Z,67.70
2023-05-07T21:25:42.477Z,68.60
2023-05-07T21:28:09.387Z,68.80
2023-05-07T21:30:37.371Z,68.90
2023-05-07T21:33:06.307Z,69.30
2023-05-07T21:35:36.260Z,69.70
2023-05-07T21:38:03.519Z,69.70
2023-05-07T21:40:30.397Z,70.40
2023-05-07T21:42:58.513Z,70.30
2023-05-07T21:45:25.549Z,70.80
2023-05-07T21:47:52.745Z,70.80
2023-05-07T21:50:19.835Z,71.70
2023-05-07T21:52:46.901Z,71.80
2023-05-07T21:55:13.925Z,72.10
2023-05-07T21:57:43.621Z,71.70
2023-05-07T22:00:13.291Z,72.80
2023-05-07T22:02:40.518Z,72.70
2023-05-07T22:05:07.774Z,72.60
2023-05-07T22:07:34.492Z,72.60
2023-05-07T22:10:01.508Z,73.50
2023-05-07T22:12:28.482Z,73.70
2023-05-07T22:14:55.277Z,74.10
2023-05-07T22:17:24.334Z,74.50
2023-05-07T22:19:51.945Z,74.60
2023-05-07T22:22:19.197Z,75.40
2023-05-07T22:24:46.834Z,75.40
2023-05-07T22:27:13.588Z,76.00
2023-05-07T22:29:40.744Z,75.90
2023-05-07T22:32:08.371Z,75.70
2023-05-07T22:34:36.729Z,75.90
2023-05-07T22:37:03.560Z,77.70
2023-05-07T22:39:34.367Z,77.80
2023-05-07T22:42:02.352Z,78.50
2023-05-07T22:44:29.396Z,78.70
2023-05-07T22:46:56.259Z,78.50
2023-05-07T22:49:23.331Z,78.50
2023-05-07T22:51:50.190Z,78.90
2023-05-07T22:54:17.061Z,78.90
2023-05-07T22:56:43.981Z,80.00
2023-05-07T22:59:10.739Z,79.70
2023-05-07T23:01:38.254Z,81.80
2023-05-07T23:04:05.229Z,80.90
2023-05-07T23:06:32.030Z,80.30
2023-05-07T23:08:59.009Z,81.40
2023-05-07T23:11:26.412Z,81.70
2023-05-07T23:13:53.273Z,82.00
2023-05-07T23:16:20.096Z,82.30
2023-05-07T23:18:47.878Z,84.00
2023-05-07T23:21:14.679Z,83.50
2023-05-07T23:23:41.525Z,83.70
2023-05-07T23:26:09.029Z,84.10
2023-05-07T23:28:35.966Z,83.50
2023-05-07T23:31:02.980Z,84.50
2023-05-07T23:33:29.843Z,84.90
2023-05-07T23:36:04.573Z,85.10
2023-05-07T23:38:31.767Z,84.50
2023-05-07T23:40:58.839Z,85.80
2023-05-07T23:43:25.881Z,85.90
2023-05-07T23:45:52.858Z,86.10
2023-05-07T23:48:19.844Z,85.90
2023-05-07T23:50:46.704Z,85.90
2023-05-07T23:53:13.539Z,85.80
2023-05-07T23:55:40.354Z,86.00
2023-05-07T23:58:07.200Z,86.30
